Terminal Aerodrome Forecast
Issued by NWS

Current Version | Previous Version | Text Only | Print | Product List | Glossary On
Versions: 1 2 3 4 5 6 7 8 9 10 11 12 13 14 15 16 17 18 19 20 21 22 23 24
809
FTUS45 KGJT 221740 AAA
TAFMTJ
TAF AMD
KMTJ 221740Z 2218/2318 VRB03KT P6SM FEW090
     FM230400 03005KT P6SM SCT100 SCT200
     FM230600 09007KT P6SM BKN090
     FM230900 15005KT P6SM SCT110
     FM231400 VRB04KT P6SM FEW110=

USA.gov is the U.S. government's official web portal to all federal, state and local government web resources and services.